Time;durP1;ratioP1;P1;durP2;ratioP2;P2;SDS_P1;SDS_P2;PMS_P1;PMS_P2;Temp;Humidity;BMP_temperature;BMP_pressure;BME280_temperature;BME280_humidity;BME280_pressure;Samples;Min_cycle;Max_cycle;Signal;HPM_P1;HPM_P2
2023/10/11 00:01:01;;;;;;;16.70;6.20;;;;;;;25.44;94.65;101440.56;5051258;28;20689;-43
2023/10/11 00:05:53;;;;;;;13.95;6.25;;;;;;;25.45;94.52;101442.19;5050922;28;20046;-43
2023/10/11 00:08:19;;;;;;;15.55;6.65;;;;;;;25.49;94.29;101436.84;5051623;28;20036;-44
2023/10/11 00:10:53;;;;;;;19.35;7.35;;;;;;;25.51;94.14;101439.31;5052129;28;20860;-44
2023/10/11 00:13:20;;;;;;;14.35;6.30;;;;;;;25.53;93.75;101440.66;5052065;28;20039;-56
2023/10/11 00:15:48;;;;;;;16.25;6.88;;;;;;;25.54;93.76;101436.75;5051591;28;20072;-43
2023/10/11 00:18:35;;;;;;;16.02;6.45;;;;;;;25.55;93.83;101448.66;5051545;28;20321;-44
2023/10/11 00:21:10;;;;;;;14.52;6.53;;;;;;;25.54;93.73;101441.44;5051162;28;20078;-43
2023/10/11 00:23:36;;;;;;;12.30;6.07;;;;;;;25.54;93.82;101456.16;5030196;28;20444;-44
2023/10/11 00:26:02;;;;;;;13.48;6.50;;;;;;;25.53;93.53;101448.97;5033067;28;20020;-44
2023/10/11 00:28:31;;;;;;;14.80;6.80;;;;;;;25.51;93.74;101444.88;5051254;28;20531;-43
2023/10/11 00:30:59;;;;;;;15.18;6.82;;;;;;;25.47;94.10;101441.91;5051860;28;20154;-44
2023/10/11 00:33:26;;;;;;;16.17;7.03;;;;;;;25.45;94.19;101436.66;5066763;28;20034;-56
2023/10/11 00:35:52;;;;;;;17.90;6.75;;;;;;;25.39;94.34;101424.03;5034666;28;20382;-57
2023/10/11 00:38:20;;;;;;;20.45;7.32;;;;;;;25.35;94.63;101419.41;5050404;28;20513;-56
2023/10/11 00:41:00;;;;;;;18.70;6.53;;;;;;;25.35;94.57;101431.31;5051034;28;20032;-44
2023/10/11 00:43:34;;;;;;;16.38;6.22;;;;;;;25.36;94.42;101421.03;5050632;28;20032;-45
2023/10/11 00:46:01;;;;;;;15.27;6.53;;;;;;;25.37;94.40;101420.75;5051585;28;20515;-44
2023/10/11 00:48:29;;;;;;;13.93;6.25;;;;;;;25.39;94.29;101423.22;5028593;28;20032;-58
2023/10/11 00:50:56;;;;;;;16.10;7.05;;;;;;;25.38;94.26;101418.81;5051366;28;20390;-56
2023/10/11 00:53:23;;;;;;;14.15;6.63;;;;;;;25.35;94.25;101411.91;5032867;28;20028;-56
2023/10/11 00:55:49;;;;;;;14.88;6.95;;;;;;;25.33;94.41;101413.34;5034829;28;20048;-56
2023/10/11 00:58:15;;;;;;;14.52;6.40;;;;;;;25.30;94.42;101410.06;5050881;28;20029;-56
2023/10/11 01:00:42;;;;;;;17.65;6.45;;;;;;;25.28;94.65;101406.75;5032069;28;20067;-58
2023/10/11 01:03:08;;;;;;;16.48;6.95;;;;;;;25.25;94.63;101415.72;5032462;28;20146;-56
2023/10/11 01:05:43;;;;;;;21.13;6.80;;;;;;;25.22;94.82;101408.03;5050246;28;20099;-57
2023/10/11 01:08:09;;;;;;;13.30;7.25;;;;;;;25.25;94.72;101406.59;5051131;28;20040;-57
2023/10/11 01:10:34;;;;;;;11.88;6.60;;;;;;;25.24;94.82;101408.53;5048649;28;20648;-56
2023/10/11 01:12:59;;;;;;;19.08;7.25;;;;;;;25.22;94.70;101399.69;5051078;28;20042;-44
2023/10/11 01:15:25;;;;;;;17.52;6.90;;;;;;;25.22;94.94;101410.00;5032945;28;20175;-45
2023/10/11 01:17:51;;;;;;;22.13;7.75;;;;;;;25.21;95.03;101405.56;5049915;28;20035;-44
2023/10/11 01:20:19;;;;;;;18.20;6.57;;;;;;;25.17;95.22;101396.25;5051123;28;20061;-43
2023/10/11 01:22:45;;;;;;;15.15;6.53;;;;;;;25.19;95.01;101397.56;5050756;28;20040;-45
2023/10/11 01:25:20;;;;;;;11.93;6.50;;;;;;;25.22;94.81;101391.38;5066577;28;20085;-43
2023/10/11 01:27:47;;;;;;;21.20;7.20;;;;;;;25.22;94.68;101385.84;5049980;28;20036;-44
2023/10/11 01:30:13;;;;;;;16.67;7.13;;;;;;;25.20;94.87;101390.91;5050047;28;20637;-43
2023/10/11 01:32:41;;;;;;;15.88;6.55;;;;;;;25.20;95.02;101384.50;5049853;28;20583;-45
2023/10/11 01:35:19;;;;;;;15.82;7.13;;;;;;;25.18;94.84;101384.84;5050307;28;21313;-44
2023/10/11 01:37:46;;;;;;;15.85;7.22;;;;;;;25.17;95.00;101377.63;5063705;28;20554;-44
2023/10/11 01:40:20;;;;;;;14.20;6.75;;;;;;;25.16;95.10;101378.75;5050130;28;20028;-42
2023/10/11 01:42:49;;;;;;;20.42;7.03;;;;;;;25.19;94.79;101371.78;5049688;28;20039;-44
2023/10/11 01:45:17;;;;;;;16.45;7.22;;;;;;;25.20;94.67;101362.31;5049365;28;20114;-57
2023/10/11 01:47:44;;;;;;;12.95;6.68;;;;;;;25.21;94.58;101366.75;5049558;28;20530;-56
2023/10/11 01:50:09;;;;;;;12.20;6.40;;;;;;;25.22;94.51;101365.59;5034376;28;20044;-56
2023/10/11 01:52:35;;;;;;;14.98;6.78;;;;;;;25.25;94.37;101354.72;5063890;28;20044;-56
2023/10/11 01:55:01;;;;;;;16.67;7.38;;;;;;;25.27;94.37;101344.13;5047995;28;20121;-56
2023/10/11 01:57:26;;;;;;;11.55;5.85;;;;;;;25.30;94.11;101345.44;5049385;28;20040;-56
2023/10/11 01:59:52;;;;;;;13.50;6.75;;;;;;;25.30;94.12;101343.47;5047965;28;20076;-57
2023/10/11 02:02:18;;;;;;;14.75;7.15;;;;;;;25.30;93.79;101339.91;5030370;28;20040;-57
2023/10/11 02:04:44;;;;;;;16.88;7.10;;;;;;;25.28;94.15;101340.19;5049606;28;20110;-56
2023/10/11 02:07:09;;;;;;;15.85;6.90;;;;;;;25.28;94.21;101340.19;5049056;28;20032;-57
2023/10/11 02:09:34;;;;;;;17.05;6.53;;;;;;;25.28;94.06;101342.16;5047677;28;20039;-45
2023/10/11 02:12:00;;;;;;;13.45;6.60;;;;;;;25.24;94.03;101352.25;5048967;28;20031;-44
2023/10/11 02:14:29;;;;;;;13.18;6.63;;;;;;;25.22;94.15;101348.97;5049731;28;20452;-44
2023/10/11 02:16:55;;;;;;;14.90;7.05;;;;;;;25.18;94.50;101351.56;5048886;28;20457;-57
2023/10/11 02:19:23;;;;;;;16.73;7.32;;;;;;;25.11;94.91;101349.22;5048493;28;20778;-56
2023/10/11 02:21:48;;;;;;;17.90;7.40;;;;;;;25.09;94.94;101345.94;5049556;28;20027;-56
2023/10/11 02:24:17;;;;;;;15.02;6.13;;;;;;;25.10;94.84;101342.03;5049078;28;20540;-56
2023/10/11 02:26:49;;;;;;;14.73;7.25;;;;;;;25.10;94.90;101346.75;5050433;28;20524;-56
2023/10/11 02:29:25;;;;;;;19.52;6.97;;;;;;;25.10;94.82;101342.03;5049371;28;20145;-56
2023/10/11 02:31:55;;;;;;;17.17;7.00;;;;;;;25.10;94.77;101338.41;5048461;28;20439;-57
2023/10/11 02:34:21;;;;;;;13.45;6.72;;;;;;;25.09;94.79;101331.22;5048462;28;20032;-44
2023/10/11 02:37:01;;;;;;;14.48;6.57;;;;;;;25.11;94.83;101326.19;5054123;28;20310;-57
2023/10/11 02:39:31;;;;;;;12.02;6.00;;;;;;;25.13;94.55;101323.94;5052564;28;20131;-58
2023/10/11 02:41:58;;;;;;;12.50;6.22;;;;;;;25.15;94.21;101330.00;5031978;28;20379;-57
2023/10/11 02:44:26;;;;;;;13.52;6.50;;;;;;;25.15;94.23;101330.81;5049545;28;20252;-57
2023/10/11 02:46:52;;;;;;;10.88;6.53;;;;;;;25.15;94.26;101330.81;5031263;28;20035;-57
2023/10/11 02:49:21;;;;;;;15.45;6.97;;;;;;;25.15;94.29;101330.00;5048600;28;20072;-57
2023/10/11 02:51:59;;;;;;;17.35;7.95;;;;;;;25.12;94.24;101331.44;5049604;28;20800;-56
2023/10/11 02:54:34;;;;;;;14.50;6.85;;;;;;;25.13;94.32;101335.84;5049029;28;20028;-56
2023/10/11 02:57:05;;;;;;;15.02;7.72;;;;;;;25.14;94.46;101336.69;5049794;28;20059;-56
2023/10/11 02:59:33;;;;;;;19.83;7.10;;;;;;;25.14;94.25;101331.13;5048952;28;20192;-58
2023/10/11 03:01:59;;;;;;;13.00;7.05;;;;;;;25.17;94.16;101324.94;5048582;28;21858;-57
2023/10/11 03:04:39;;;;;;;18.85;8.43;;;;;;;25.21;93.78;101330.69;5048877;28;20728;-57
2023/10/11 03:07:05;;;;;;;13.07;7.30;;;;;;;25.23;93.47;101334.78;5047868;28;20042;-57
2023/10/11 03:09:33;;;;;;;15.45;6.90;;;;;;;25.25;93.44;101324.19;5049759;28;21357;-57
2023/10/11 03:12:06;;;;;;;13.02;6.43;;;;;;;25.22;93.63;101324.00;5048192;28;20040;-57
2023/10/11 03:14:41;;;;;;;14.55;7.28;;;;;;;25.18;93.75;101331.31;5048595;28;20032;-58
2023/10/11 03:17:13;;;;;;;14.00;6.88;;;;;;;25.15;93.66;101311.41;5048396;28;20123;-57
2023/10/11 03:19:42;;;;;;;13.35;6.75;;;;;;;25.13;93.76;101302.56;5047765;28;20043;-57
2023/10/11 03:22:19;;;;;;;13.27;6.35;;;;;;;25.07;93.83;101298.28;5033367;28;20231;-57
2023/10/11 03:24:49;;;;;;;14.23;7.13;;;;;;;25.11;93.84;101298.47;5052890;28;20059;-57
2023/10/11 03:27:14;;;;;;;13.32;6.43;;;;;;;25.10;93.87;101305.16;5053530;28;20089;-56
2023/10/11 03:29:40;;;;;;;14.18;7.47;;;;;;;25.06;93.92;101312.47;5034374;28;20036;-58
2023/10/11 03:32:05;;;;;;;12.77;6.97;;;;;;;24.99;94.35;101312.88;5053465;28;20149;-55
2023/10/11 03:34:31;;;;;;;17.88;7.50;;;;;;;24.94;94.76;101313.84;5052945;28;20201;-56
2023/10/11 03:36:59;;;;;;;13.32;6.78;;;;;;;24.92;94.77;101298.66;5053249;28;20032;-57
2023/10/11 03:44:40;;;;;;;17.17;8.05;;;;;;;24.87;95.48;101307.06;5051262;28;20056;-56
2023/10/11 03:47:09;;;;;;;13.98;6.90;;;;;;;24.87;95.62;101296.00;5051681;28;20085;-56
2023/10/11 03:52:19;;;;;;;17.27;7.50;;;;;;;24.85;95.43;101312.13;5066603;27;20415;-56
2023/10/11 03:54:49;;;;;;;16.45;7.30;;;;;;;24.82;95.76;101300.53;5051297;28;20142;-57
2023/10/11 03:57:17;;;;;;;14.10;7.10;;;;;;;24.80;96.20;101297.25;5067319;27;20039;-56
2023/10/11 03:59:48;;;;;;;12.23;7.45;;;;;;;24.77;96.34;101294.28;5051372;28;20052;-57
2023/10/11 04:02:17;;;;;;;17.42;7.30;;;;;;;24.76;96.19;101289.88;5051081;28;20093;-57
2023/10/11 04:04:44;;;;;;;12.57;6.45;;;;;;;24.75;96.24;101297.38;5050699;28;20050;-57
2023/10/11 04:07:13;;;;;;;14.40;7.20;;;;;;;24.73;96.80;101294.06;5051180;28;20885;-57
2023/10/11 04:09:44;;;;;;;11.20;6.90;;;;;;;24.71;96.90;101301.06;5051321;28;20130;-57
2023/10/11 04:12:10;;;;;;;14.93;7.07;;;;;;;24.70;97.10;101303.03;5050223;28;20036;-56
2023/10/11 04:14:45;;;;;;;14.73;6.57;;;;;;;24.70;97.03;101297.50;5050745;28;20113;-56
2023/10/11 04:20:17;;;;;;;15.48;6.90;;;;;;;24.69;97.35;101293.06;5051156;28;20038;-57
2023/10/11 04:22:51;;;;;;;15.23;6.78;;;;;;;24.68;97.22;101288.66;5052043;28;20028;-57
2023/10/11 04:25:22;;;;;;;13.95;7.03;;;;;;;24.69;97.53;101284.75;5050530;28;20044;-56
2023/10/11 04:27:55;;;;;;;12.68;6.45;;;;;;;24.70;97.66;101286.41;5050940;28;21508;-57
2023/10/11 04:30:26;;;;;;;9.93;6.57;;;;;;;24.69;97.62;101297.81;5050868;28;20016;-57
2023/10/11 04:32:56;;;;;;;15.90;7.63;;;;;;;24.64;97.78;101301.47;5050427;28;20036;-57
2023/10/11 04:35:25;;;;;;;16.63;7.40;;;;;;;24.61;98.14;101291.84;5050411;28;20965;-57
2023/10/11 04:38:03;;;;;;;15.90;7.57;;;;;;;24.63;98.27;101294.28;5041684;28;20031;-57
2023/10/11 04:40:41;;;;;;;16.15;8.20;;;;;;;24.63;98.23;101300.63;5051537;28;20147;-57
2023/10/11 04:43:26;;;;;;;13.40;7.28;;;;;;;24.61;98.25;101299.31;5053670;28;20023;-57
2023/10/11 04:45:59;;;;;;;14.18;7.13;;;;;;;24.61;98.31;101302.09;5051797;28;21008;-56
2023/10/11 04:48:29;;;;;;;16.65;8.07;;;;;;;24.59;98.56;101302.41;5033196;28;20439;-57
2023/10/11 04:51:04;;;;;;;17.73;7.70;;;;;;;24.59;98.43;101301.59;5050858;28;20105;-56
2023/10/11 04:53:34;;;;;;;14.95;6.55;;;;;;;24.58;98.57;101302.72;5051451;28;21539;-59
2023/10/11 04:55:59;;;;;;;17.80;7.00;;;;;;;24.57;98.41;101293.56;5031583;28;20439;-57
2023/10/11 04:58:49;;;;;;;12.75;7.40;;;;;;;24.57;98.64;101279.72;5050698;28;20033;-57
2023/10/11 05:01:22;;;;;;;12.23;6.75;;;;;;;24.56;98.61;101280.88;5051391;28;20522;-58
2023/10/11 05:03:59;;;;;;;13.85;7.57;;;;;;;24.56;98.64;101293.88;5018411;28;20046;-58
2023/10/11 05:06:39;;;;;;;13.40;7.00;;;;;;;24.55;98.81;101292.25;5051691;28;20085;-57
2023/10/11 05:11:53;;;;;;;16.45;7.10;;;;;;;24.56;98.57;101286.41;5046646;28;20043;-57
2023/10/11 05:14:37;;;;;;;17.52;7.30;;;;;;;24.55;99.02;101292.25;5046882;28;20639;-56
2023/10/11 05:22:48;;;;;;;11.27;6.55;;;;;;;24.50;99.33;101277.38;5049156;28;20040;-56
2023/10/11 05:28:26;;;;;;;16.88;8.25;;;;;;;24.50;99.31;101282.13;5045617;28;20121;-58
2023/10/11 05:36:32;;;;;;;16.48;8.68;;;;;;;24.49;99.45;101288.78;5049433;28;20059;-57
2023/10/11 05:52:38;;;;;;;14.37;7.53;;;;;;;24.50;99.70;101271.03;5050843;28;20075;-42
2023/10/11 05:55:06;;;;;;;17.05;7.45;;;;;;;24.49;99.86;101283.25;5029498;28;20298;-44
2023/10/11 05:57:31;;;;;;;16.65;8.00;;;;;;;24.49;99.81;101281.28;5026672;28;20039;-57
2023/10/11 06:00:02;;;;;;;18.92;7.63;;;;;;;24.48;100.00;101282.41;5049126;28;20122;-57
2023/10/11 06:02:27;;;;;;;15.90;7.88;;;;;;;24.46;100.00;101284.69;5048402;28;20040;-57
2023/10/11 06:04:55;;;;;;;16.08;7.47;;;;;;;24.46;100.00;101295.78;5047877;28;20042;-56
2023/10/11 06:07:21;;;;;;;19.35;7.50;;;;;;;24.47;100.00;101300.16;5048997;28;20545;-58
2023/10/11 06:09:52;;;;;;;14.07;7.22;;;;;;;24.47;100.00;101294.63;5048013;28;20155;-44
2023/10/11 06:12:26;;;;;;;16.52;7.38;;;;;;;24.48;100.00;101292.69;5048521;28;20036;-45
2023/10/11 06:14:56;;;;;;;19.60;8.95;;;;;;;24.49;100.00;101297.91;5047909;28;20897;-45
2023/10/11 06:20:26;;;;;;;17.50;7.63;;;;;;;24.47;100.00;101300.16;5038214;28;20560;-46
2023/10/11 06:22:56;;;;;;;16.60;7.72;;;;;;;24.44;100.00;101300.78;5030008;28;20037;-44
2023/10/11 06:28:17;;;;;;;17.52;7.45;;;;;;;24.41;100.00;101309.72;5039477;28;20044;-57
2023/10/11 06:30:46;;;;;;;21.88;8.23;;;;;;;24.41;100.00;101317.22;5030647;28;20056;-57
2023/10/11 06:33:13;;;;;;;18.40;8.40;;;;;;;24.42;100.00;101307.78;5048768;28;20032;-44
2023/10/11 06:35:46;;;;;;;16.63;7.75;;;;;;;24.42;100.00;101305.81;5047645;28;20044;-44
2023/10/11 06:38:14;;;;;;;19.33;8.60;;;;;;;24.42;100.00;101303.03;5048771;28;20954;-44
2023/10/11 06:40:39;;;;;;;17.80;7.80;;;;;;;24.43;100.00;101292.81;5048056;28;20047;-44
2023/10/11 06:43:06;;;;;;;19.35;8.32;;;;;;;24.42;100.00;101286.44;5048928;28;20348;-45
2023/10/11 06:45:32;;;;;;;18.60;8.00;;;;;;;24.43;100.00;101296.38;5049691;28;20710;-44
2023/10/11 06:48:06;;;;;;;14.70;7.93;;;;;;;24.45;100.00;101296.06;5047721;28;20045;-43
2023/10/11 06:50:38;;;;;;;21.83;7.80;;;;;;;24.45;100.00;101305.22;5062253;28;20333;-57
2023/10/11 06:53:07;;;;;;;15.32;7.47;;;;;;;24.47;100.00;101314.00;5048454;28;21205;-57
2023/10/11 06:55:33;;;;;;;16.77;7.93;;;;;;;24.50;100.00;101318.94;5047770;28;20411;-44
2023/10/11 06:58:03;;;;;;;18.58;7.90;;;;;;;24.52;100.00;101311.16;5048320;28;20562;-57
2023/10/11 07:00:29;;;;;;;19.35;7.55;;;;;;;24.54;100.00;101312.75;5027880;28;20656;-58
2023/10/11 07:02:54;;;;;;;17.83;7.85;;;;;;;24.56;100.00;101338.22;5030436;28;20037;-58
2023/10/11 07:05:21;;;;;;;17.65;7.43;;;;;;;24.56;100.00;101327.13;5048089;28;20024;-58
2023/10/11 07:07:52;;;;;;;18.75;7.70;;;;;;;24.54;100.00;101326.63;5048550;28;20781;-57
2023/10/11 07:10:33;;;;;;;16.38;7.25;;;;;;;24.59;100.00;101323.75;5049564;28;20647;-58
2023/10/11 07:13:03;;;;;;;21.45;8.50;;;;;;;24.62;100.00;101328.66;5048671;28;20063;-45
2023/10/11 07:15:50;;;;;;;15.82;7.72;;;;;;;24.60;100.00;101328.19;5043483;28;21540;-57
2023/10/11 07:18:25;;;;;;;17.55;7.40;;;;;;;24.59;100.00;101330.13;5047424;28;21118;-57
2023/10/11 07:21:09;;;;;;;20.70;8.07;;;;;;;24.59;100.00;101330.13;5048917;28;20226;-57
2023/10/11 07:23:56;;;;;;;19.73;8.55;;;;;;;24.61;100.00;101332.56;5047783;28;21026;-57
2023/10/11 07:26:23;;;;;;;24.52;8.60;;;;;;;24.63;100.00;101333.09;5059215;28;20043;-53
2023/10/11 07:28:51;;;;;;;22.75;8.43;;;;;;;24.61;100.00;101330.63;5047241;28;20336;-57
2023/10/11 07:31:17;;;;;;;17.83;7.85;;;;;;;24.61;100.00;101330.63;5047814;28;20074;-59
2023/10/11 07:33:49;;;;;;;20.70;8.48;;;;;;;24.62;100.00;101323.97;5047208;28;20114;-57
2023/10/11 07:36:18;;;;;;;19.95;7.95;;;;;;;24.64;100.00;101327.22;5047593;28;20032;-57
2023/10/11 07:38:46;;;;;;;20.10;7.85;;;;;;;24.63;100.00;101335.84;5047822;28;20102;-57
2023/10/11 07:41:17;;;;;;;17.55;7.82;;;;;;;24.63;100.00;101324.78;5046996;28;20449;-57
2023/10/11 07:43:46;;;;;;;23.85;8.30;;;;;;;24.62;100.00;101325.91;5048613;28;20482;-57
2023/10/11 07:46:12;;;;;;;29.33;8.57;;;;;;;24.60;100.00;101331.75;5044949;28;20081;-56
2023/10/11 07:48:39;;;;;;;19.73;7.95;;;;;;;24.60;100.00;101337.31;5047926;28;20036;-57
2023/10/11 07:51:11;;;;;;;19.38;7.65;;;;;;;24.60;100.00;101333.72;5028681;28;20027;-43
2023/10/11 07:53:43;;;;;;;18.25;8.20;;;;;;;24.57;100.00;101340.69;5045906;28;20066;-43
2023/10/11 07:56:09;;;;;;;32.60;8.55;;;;;;;24.57;100.00;101340.69;5046773;28;20032;-44
2023/10/11 07:58:36;;;;;;;17.42;7.97;;;;;;;24.56;100.00;101349.31;5047961;28;20382;-57
2023/10/11 08:01:15;;;;;;;17.35;7.30;;;;;;;24.58;100.00;101358.94;5047149;28;20506;-57
2023/10/11 08:03:46;;;;;;;16.85;7.80;;;;;;;24.57;100.00;101373.13;5047917;28;20115;-57
2023/10/11 08:06:13;;;;;;;23.17;8.05;;;;;;;24.56;100.00;101361.22;5046625;28;20063;-59
2023/10/11 08:08:40;;;;;;;18.13;7.00;;;;;;;24.57;100.00;101367.56;5050164;28;20103;-57
2023/10/11 08:11:18;;;;;;;13.02;6.40;;;;;;;24.55;100.00;101359.59;5051328;28;20039;-56
2023/10/11 08:13:47;;;;;;;15.30;6.97;;;;;;;24.56;100.00;101357.63;5051933;28;20043;-58
2023/10/11 08:16:17;;;;;;;12.98;6.20;;;;;;;24.55;100.00;101350.44;5050477;28;21011;-45
2023/10/11 08:18:45;;;;;;;17.95;7.00;;;;;;;24.54;100.00;101363.47;5051002;28;20957;-45
2023/10/11 08:21:11;;;;;;;11.65;5.60;;;;;;;24.52;100.00;101355.47;5049883;28;20040;-57
2023/10/11 08:23:42;;;;;;;13.40;5.88;;;;;;;24.51;100.00;101348.28;5050944;28;20752;-58
2023/10/11 08:26:14;;;;;;;10.90;5.43;;;;;;;24.51;100.00;101359.38;5051030;28;20371;-56
2023/10/11 08:28:47;;;;;;;12.25;5.28;;;;;;;24.49;100.00;101367.16;5051095;28;20472;-57
2023/10/11 08:31:14;;;;;;;12.07;6.23;;;;;;;24.50;100.00;101376.31;5050179;28;20044;-58
2023/10/11 08:33:40;;;;;;;13.15;6.43;;;;;;;24.50;100.00;101354.97;5030135;28;20110;-57
2023/10/11 08:36:10;;;;;;;10.55;5.72;;;;;;;24.50;100.00;101345.84;5032212;28;20128;-57
2023/10/11 08:38:35;;;;;;;13.98;5.30;;;;;;;24.52;100.00;101368.50;5049866;28;20067;-58
2023/10/11 08:41:01;;;;;;;14.10;5.80;;;;;;;24.51;100.00;101362.16;5050834;28;20141;-57
2023/10/11 08:43:28;;;;;;;9.20;5.20;;;;;;;24.49;100.00;101346.97;5051207;28;20039;-57
2023/10/11 08:46:01;;;;;;;10.20;4.90;;;;;;;24.52;100.00;101352.72;5064811;28;20289;-58
2023/10/11 08:48:27;;;;;;;12.63;5.47;;;;;;;24.52;100.00;101361.03;5051500;28;20035;-58
2023/10/11 08:50:54;;;;;;;10.25;5.30;;;;;;;24.51;100.00;101353.00;5049992;28;20583;-57
2023/10/11 08:53:26;;;;;;;48.35;5.97;;;;;;;24.50;100.00;101359.69;5051536;28;20713;-49
2023/10/11 08:55:56;;;;;;;31.33;6.05;;;;;;;24.52;100.00;101365.72;5051556;28;20579;-50
2023/10/11 08:58:27;;;;;;;29.85;6.35;;;;;;;24.52;100.00;101355.47;5052832;28;20561;-49
2023/10/11 09:00:55;;;;;;;20.40;5.72;;;;;;;24.54;100.00;101346.00;5049572;28;20048;-50
2023/10/11 09:03:31;;;;;;;24.10;6.22;;;;;;;24.56;100.00;101344.59;5049610;28;20440;-47
2023/10/11 09:06:00;;;;;;;23.30;6.20;;;;;;;24.58;100.00;101353.41;5051459;28;20066;-51
2023/10/11 09:08:35;;;;;;;24.42;6.10;;;;;;;24.61;100.00;101354.72;5050306;28;20139;-48
2023/10/11 09:11:31;;;;;;;13.95;5.25;;;;;;;24.63;100.00;101367.16;5036046;28;20039;-49
2023/10/11 09:14:13;;;;;;;20.90;5.53;;;;;;;24.66;100.00;101363.78;5051642;28;20400;-52
2023/10/11 09:16:42;;;;;;;21.48;5.45;;;;;;;24.69;100.00;101373.44;5051370;28;20064;-51
2023/10/11 09:19:11;;;;;;;15.13;5.07;;;;;;;24.70;100.00;101365.94;5050164;28;20568;-54
2023/10/11 09:21:37;;;;;;;14.07;4.82;;;;;;;24.72;100.00;101374.78;5049864;28;20036;-45
2023/10/11 09:24:23;;;;;;;14.27;5.68;;;;;;;24.73;100.00;101381.97;5051469;28;20523;-51
2023/10/11 09:29:40;;;;;;;13.65;5.28;;;;;;;24.76;100.00;101401.56;5050440;28;20062;-53
2023/10/11 09:32:05;;;;;;;12.32;4.65;;;;;;;24.78;100.00;101387.38;5051505;28;20024;-55
2023/10/11 09:34:32;;;;;;;13.75;5.13;;;;;;;24.78;100.00;101384.63;5050812;28;20033;-54
2023/10/11 09:37:00;;;;;;;12.20;4.60;;;;;;;24.81;100.00;101378.47;5050965;28;20028;-52
2023/10/11 09:39:29;;;;;;;15.40;5.13;;;;;;;24.82;100.00;101375.38;5050243;28;20126;-54
2023/10/11 09:42:03;;;;;;;15.10;5.43;;;;;;;24.84;100.00;101377.81;5051680;28;20126;-47
2023/10/11 09:44:37;;;;;;;11.88;4.70;;;;;;;24.86;100.00;101380.31;5050160;28;20028;-53
2023/10/11 09:47:04;;;;;;;12.18;5.63;;;;;;;24.85;100.00;101379.47;5049867;28;20114;-53
2023/10/11 09:49:41;;;;;;;12.38;5.40;;;;;;;24.89;100.00;101379.66;5049561;28;20155;-50
2023/10/11 09:52:08;;;;;;;12.00;5.38;;;;;;;24.90;100.00;101384.91;5051037;28;20404;-51
2023/10/11 09:54:37;;;;;;;10.18;4.40;;;;;;;24.92;100.00;101390.97;5051078;28;20090;-51
2023/10/11 09:57:22;;;;;;;11.57;4.60;;;;;;;24.94;100.00;101383.16;5066110;28;20020;-46
2023/10/11 10:00:11;;;;;;;10.48;4.50;;;;;;;24.97;100.00;101387.25;5050906;28;20657;-53
2023/10/11 10:02:38;;;;;;;10.38;4.60;;;;;;;24.98;100.00;101373.06;5064681;28;20032;-52
2023/10/11 10:05:05;;;;;;;13.45;4.32;;;;;;;25.01;100.00;101365.28;5051408;28;20044;-46
2023/10/11 10:07:42;;;;;;;10.77;4.40;;;;;;;25.01;100.00;101371.63;5051302;28;20034;-42
2023/10/11 10:10:11;;;;;;;12.15;4.88;;;;;;;25.04;100.00;101376.56;5065453;28;20062;-42
2023/10/11 10:12:54;;;;;;;12.75;4.18;;;;;;;25.01;100.00;101371.63;5051735;28;20036;-42
2023/10/11 10:15:23;;;;;;;8.93;4.07;;;;;;;24.97;100.00;101378.94;5051348;28;20500;-42
2023/10/11 10:17:57;;;;;;;7.25;3.83;;;;;;;24.92;100.00;101374.31;5050013;28;20047;-43
2023/10/11 10:20:28;;;;;;;8.55;3.88;;;;;;;24.90;100.00;101364.69;5051282;28;20028;-40
2023/10/11 10:23:21;;;;;;;12.13;4.15;;;;;;;24.88;100.00;101365.00;5048979;28;20050;-41
2023/10/11 10:26:04;;;;;;;7.95;3.72;;;;;;;24.88;100.00;101351.13;5049709;28;20463;-41
2023/10/11 10:28:35;;;;;;;10.25;3.83;;;;;;;24.89;100.00;101354.72;5051489;28;20066;-41
2023/10/11 10:31:04;;;;;;;11.20;4.20;;;;;;;24.90;100.00;101323.91;5045405;28;21017;-42
2023/10/11 10:33:35;;;;;;;14.50;4.35;;;;;;;24.91;100.00;101320.00;5028992;28;20036;-44
2023/10/11 10:36:20;;;;;;;9.25;3.85;;;;;;;24.93;100.00;101334.38;5032755;28;20036;-41
2023/10/11 10:39:01;;;;;;;6.68;3.60;;;;;;;24.94;100.00;101336.03;5038570;28;20050;-41
2023/10/11 10:41:29;;;;;;;10.23;3.40;;;;;;;24.97;100.00;101329.03;5034592;28;20063;-40
2023/10/11 10:44:11;;;;;;;9.20;3.70;;;;;;;24.98;100.00;101327.91;5050965;28;20077;-39
2023/10/11 10:46:49;;;;;;;9.00;3.55;;;;;;;25.00;100.00;101328.41;5050631;28;20220;-42
2023/10/11 10:49:18;;;;;;;9.55;3.50;;;;;;;25.03;100.00;101326.94;5034433;28;20032;-42
2023/10/11 10:51:53;;;;;;;7.60;3.90;;;;;;;25.04;100.00;101328.59;5050497;28;20028;-41
2023/10/11 10:54:23;;;;;;;7.85;3.45;;;;;;;25.05;100.00;101319.97;5049704;28;20036;-41
2023/10/11 10:56:53;;;;;;;7.18;3.55;;;;;;;25.06;100.00;101316.03;5050723;28;20032;-39
2023/10/11 10:59:25;;;;;;;12.48;3.30;;;;;;;25.08;100.00;101304.66;5031532;28;20524;-42
2023/10/11 11:01:52;;;;;;;8.57;3.55;;;;;;;25.10;100.00;101302.38;5048903;28;20039;-42
2023/10/11 11:04:22;;;;;;;8.00;3.35;;;;;;;25.12;100.00;101305.66;5049874;28;21196;-41
2023/10/11 11:06:50;;;;;;;11.80;3.58;;;;;;;25.14;100.00;101306.19;5049570;28;20037;-45
2023/10/11 11:09:25;;;;;;;11.60;3.38;;;;;;;25.17;100.00;101326.91;5048036;28;20518;-42
2023/10/11 11:11:54;;;;;;;6.18;3.20;;;;;;;25.20;100.00;101323.50;5049588;28;20035;-43
2023/10/11 11:14:20;;;;;;;6.82;2.97;;;;;;;25.20;100.00;101318.78;5031309;28;21099;-41
2023/10/11 11:16:59;;;;;;;10.27;3.30;;;;;;;25.21;100.00;101323.19;5050628;28;20028;-41
2023/10/11 11:19:27;;;;;;;7.22;3.50;;;;;;;25.22;100.00;101324.81;5049615;28;20071;-43
2023/10/11 11:22:12;;;;;;;8.15;3.65;;;;;;;25.23;100.00;101320.09;5049761;28;20028;-44
2023/10/11 11:24:41;;;;;;;15.45;4.45;;;;;;;25.23;100.00;101307.03;5048942;28;20737;-40
2023/10/11 11:27:32;;;;;;;11.70;3.22;;;;;;;25.25;100.00;101315.88;5049344;28;20036;-41
2023/10/11 11:30:04;;;;;;;8.55;3.75;;;;;;;25.26;100.00;101306.44;5049439;28;20048;-40
2023/10/11 11:32:37;;;;;;;8.70;3.17;;;;;;;25.29;100.00;101314.09;5034929;28;20119;-40
2023/10/11 11:35:10;;;;;;;10.95;3.42;;;;;;;25.30;100.00;101312.16;5050261;28;20097;-42
2023/10/11 11:38:01;;;;;;;8.70;3.50;;;;;;;25.30;100.00;101323.25;5050501;28;20538;-47
2023/10/11 11:40:27;;;;;;;9.07;3.00;;;;;;;25.33;100.00;101327.34;5031957;28;21201;-40
2023/10/11 11:42:53;;;;;;;9.55;3.33;;;;;;;25.36;100.00;101318.38;5053296;28;20203;-44
2023/10/11 11:45:28;;;;;;;34.60;5.00;;;;;;;25.37;100.00;101329.22;5054029;28;20731;-56
2023/10/11 11:47:56;;;;;;;14.18;3.75;;;;;;;25.40;100.00;101322.22;5034459;28;20581;-51
2023/10/11 11:50:30;;;;;;;10.68;3.97;;;;;;;25.42;100.00;101306.88;5049988;28;20035;-52
2023/10/11 11:52:57;;;;;;;8.60;3.10;;;;;;;25.47;100.00;101317.03;5050563;28;20043;-41
2023/10/11 11:55:22;;;;;;;7.57;3.25;;;;;;;25.49;100.00;101311.16;5053020;28;20282;-41
2023/10/11 11:57:48;;;;;;;7.07;3.08;;;;;;;25.51;100.00;101311.69;5052227;28;20033;-40
2023/10/11 12:02:49;;;;;;;6.90;2.90;;;;;;;25.51;100.00;101317.22;5051363;28;21309;-53
2023/10/11 12:05:15;;;;;;;9.00;2.70;;;;;;;25.49;100.00;101316.72;5050276;28;20124;-53
2023/10/11 12:07:40;;;;;;;6.25;3.20;;;;;;;25.49;100.00;101311.97;5052429;28;20675;-53
2023/10/11 12:10:11;;;;;;;5.72;3.10;;;;;;;25.48;100.00;101310.31;5051687;28;20103;-49
2023/10/11 12:12:36;;;;;;;5.72;2.90;;;;;;;25.48;100.00;101313.09;5052346;28;20046;-52
2023/10/11 12:15:03;;;;;;;6.72;3.53;;;;;;;25.49;100.00;101317.53;5033955;28;20582;-52
2023/10/11 12:17:29;;;;;;;12.23;3.83;;;;;;;25.49;100.00;101309.19;5052824;28;20082;-41
2023/10/11 12:19:55;;;;;;;6.43;3.15;;;;;;;25.45;100.00;101300.69;5051054;28;20116;-41
2023/10/11 12:22:22;;;;;;;8.75;3.10;;;;;;;25.45;100.00;101303.47;5051579;28;20054;-42
2023/10/11 12:24:48;;;;;;;10.35;3.40;;;;;;;25.45;100.00;101305.44;5049853;28;20036;-41